Time;durP1;ratioP1;P1;durP2;ratioP2;P2;SDS_P1;SDS_P2;PMS_P1;PMS_P2;Temp;Humidity;BMP_temperature;BMP_pressure;BME280_temperature;BME280_humidity;BME280_pressure;Samples;Min_cycle;Max_cycle;Signal;HPM_P1;HPM_P2
2023/03/23 00:01:14;;;;;;;4.85;1.90;;;13.10;73.20;;;;;;5079391;28;20021;-64
2023/03/23 00:03:43;;;;;;;3.45;1.60;;;13.10;73.80;;;;;;5082692;28;20036;-64
2023/03/23 00:06:09;;;;;;;3.47;1.60;;;13.10;73.30;;;;;;5096541;28;20174;-64
2023/03/23 00:08:45;;;;;;;6.38;1.65;;;13.10;73.30;;;;;;5096646;28;20107;-65
2023/03/23 00:11:21;;;;;;;5.78;1.60;;;13.20;73.20;;;;;;5096009;28;20050;-64
2023/03/23 00:13:53;;;;;;;5.20;1.70;;;13.10;73.40;;;;;;5094385;28;20325;-64
2023/03/23 00:16:28;;;;;;;3.55;1.48;;;13.20;73.20;;;;;;5083703;28;20034;-64
2023/03/23 00:18:54;;;;;;;4.05;1.60;;;13.10;73.30;;;;;;5093968;28;20045;-64
2023/03/23 00:21:25;;;;;;;3.80;1.65;;;13.20;73.10;;;;;;5088107;28;20107;-64
2023/03/23 00:23:51;;;;;;;3.53;2.05;;;13.20;73.20;;;;;;5076332;28;20036;-64
2023/03/23 00:26:19;;;;;;;6.22;1.60;;;13.10;73.20;;;;;;5086187;28;20040;-65
2023/03/23 00:28:48;;;;;;;6.40;1.67;;;13.10;73.10;;;;;;5089486;28;20102;-63
2023/03/23 00:31:13;;;;;;;4.05;1.80;;;13.10;73.50;;;;;;5095797;28;20020;-62
2023/03/23 00:33:40;;;;;;;3.97;1.58;;;13.20;73.60;;;;;;5094367;28;20031;-63
2023/03/23 00:36:10;;;;;;;4.82;1.80;;;13.20;73.90;;;;;;5092699;28;20052;-63
2023/03/23 00:38:37;;;;;;;3.97;1.58;;;13.20;73.20;;;;;;5092902;28;20028;-63
2023/03/23 00:41:04;;;;;;;5.32;1.75;;;13.30;73.60;;;;;;5097377;28;20451;-65
2023/03/23 00:43:31;;;;;;;4.63;1.92;;;13.20;74.30;;;;;;5091441;28;20488;-64
2023/03/23 00:46:00;;;;;;;5.43;1.63;;;13.10;74.00;;;;;;5076242;28;20029;-64
2023/03/23 00:48:27;;;;;;;3.95;1.58;;;13.20;73.70;;;;;;5081148;28;20404;-64
2023/03/23 00:50:54;;;;;;;3.05;1.40;;;13.20;74.60;;;;;;5092251;28;20466;-63
2023/03/23 00:53:19;;;;;;;4.28;1.70;;;13.20;73.80;;;;;;5078649;28;20056;-63
2023/03/23 00:55:47;;;;;;;3.95;1.33;;;13.20;74.10;;;;;;5077982;28;20361;-64
2023/03/23 00:58:14;;;;;;;3.97;1.65;;;13.20;74.30;;;;;;5079780;28;20119;-64
2023/03/23 01:00:40;;;;;;;3.60;1.48;;;13.10;74.90;;;;;;5091295;28;20024;-64
2023/03/23 01:03:07;;;;;;;4.97;1.70;;;13.00;75.20;;;;;;5094624;28;20095;-65
2023/03/23 01:05:36;;;;;;;4.70;1.65;;;13.10;74.10;;;;;;5087360;28;20459;-63
2023/03/23 01:08:03;;;;;;;5.28;1.50;;;13.40;73.70;;;;;;5081043;28;20035;-64
2023/03/23 01:10:32;;;;;;;3.78;1.58;;;13.40;74.10;;;;;;5090488;28;20377;-64
2023/03/23 01:13:01;;;;;;;4.50;1.65;;;13.40;74.30;;;;;;5087909;28;20118;-64
2023/03/23 01:15:29;;;;;;;2.78;1.40;;;13.50;73.50;;;;;;5075422;28;20029;-64
2023/03/23 01:17:55;;;;;;;3.70;1.50;;;13.60;73.20;;;;;;5087683;28;20029;-64
2023/03/23 01:20:21;;;;;;;4.10;1.52;;;13.70;73.10;;;;;;5092109;28;20357;-64
2023/03/23 01:22:46;;;;;;;4.00;1.58;;;13.70;73.20;;;;;;5094518;28;20089;-65
2023/03/23 01:25:13;;;;;;;4.93;1.80;;;13.70;73.00;;;;;;5082686;28;20039;-64
2023/03/23 01:27:40;;;;;;;5.85;1.60;;;13.70;73.10;;;;;;5089317;28;20059;-64
2023/03/23 01:30:08;;;;;;;5.05;1.75;;;13.70;73.20;;;;;;5079850;28;20379;-64
2023/03/23 01:32:34;;;;;;;3.72;1.60;;;13.70;73.20;;;;;;5087914;28;20028;-64
2023/03/23 01:35:00;;;;;;;3.35;1.58;;;13.70;73.20;;;;;;5084107;28;20324;-64
2023/03/23 01:37:26;;;;;;;4.75;1.50;;;13.70;73.50;;;;;;5074854;28;20024;-63
2023/03/23 01:39:56;;;;;;;3.08;1.40;;;13.70;73.40;;;;;;5083444;28;20109;-64
2023/03/23 01:42:32;;;;;;;4.88;1.67;;;13.70;73.50;;;;;;5074493;28;20293;-64
2023/03/23 01:45:25;;;;;;;5.43;1.73;;;13.80;73.40;;;;;;5086757;28;20077;-65
2023/03/23 01:47:56;;;;;;;4.45;1.65;;;13.80;73.50;;;;;;5090955;28;20294;-65
2023/03/23 01:50:24;;;;;;;4.18;1.45;;;13.80;73.70;;;;;;5084945;28;20020;-63
2023/03/23 01:52:53;;;;;;;3.97;1.70;;;13.80;73.50;;;;;;5080653;28;20066;-64
2023/03/23 01:55:20;;;;;;;3.58;1.48;;;13.80;73.50;;;;;;5081701;28;20024;-64
2023/03/23 01:57:47;;;;;;;3.38;1.50;;;13.80;73.70;;;;;;5081462;28;20538;-64
2023/03/23 02:00:16;;;;;;;6.88;2.40;;;13.80;73.90;;;;;;5078021;28;20141;-63
2023/03/23 02:02:45;;;;;;;5.03;1.70;;;13.70;74.20;;;;;;5090394;28;20042;-65
2023/03/23 02:05:17;;;;;;;5.18;1.70;;;13.70;74.10;;;;;;5093557;28;20363;-64
2023/03/23 02:07:44;;;;;;;3.42;1.48;;;13.80;73.90;;;;;;5088673;28;20054;-64
2023/03/23 02:10:09;;;;;;;3.22;1.60;;;13.80;74.10;;;;;;5095194;28;20048;-64
2023/03/23 02:12:35;;;;;;;3.42;1.67;;;13.80;74.30;;;;;;5096981;28;20048;-64
2023/03/23 02:15:03;;;;;;;3.55;1.73;;;13.80;74.50;;;;;;5098923;28;20031;-65
2023/03/23 02:17:41;;;;;;;4.10;1.60;;;13.80;74.40;;;;;;5097539;28;20338;-65
2023/03/23 02:20:22;;;;;;;5.00;1.63;;;13.80;74.80;;;;;;5087681;28;20021;-63
2023/03/23 02:23:05;;;;;;;5.47;1.70;;;13.80;74.90;;;;;;5078092;28;20024;-65
2023/03/23 02:25:53;;;;;;;3.67;1.60;;;13.80;75.00;;;;;;5087510;28;20028;-64
2023/03/23 02:28:42;;;;;;;2.85;1.50;;;13.80;75.30;;;;;;5083339;28;20020;-65
2023/03/23 02:31:19;;;;;;;4.88;1.58;;;13.80;75.40;;;;;;5086449;28;20301;-64
2023/03/23 02:34:17;;;;;;;3.35;1.40;;;13.90;75.40;;;;;;5094791;28;20035;-64
2023/03/23 02:36:58;;;;;;;3.92;1.60;;;13.90;75.30;;;;;;5082659;28;20051;-64
2023/03/23 02:39:48;;;;;;;5.20;1.60;;;13.90;75.60;;;;;;5086330;28;20021;-64
2023/03/23 02:42:25;;;;;;;3.75;1.70;;;14.00;75.40;;;;;;5080616;28;20078;-65
2023/03/23 02:44:54;;;;;;;4.10;1.55;;;14.00;75.40;;;;;;5078176;28;20116;-65
2023/03/23 02:47:27;;;;;;;4.38;1.80;;;13.90;75.20;;;;;;5092066;28;20115;-65
2023/03/23 02:49:55;;;;;;;3.22;1.40;;;13.90;75.20;;;;;;5088287;28;20032;-64
2023/03/23 02:52:25;;;;;;;2.53;1.33;;;14.00;75.30;;;;;;5089832;28;20037;-63
2023/03/23 02:54:53;;;;;;;4.00;1.67;;;14.10;74.90;;;;;;5086065;28;20055;-64
2023/03/23 02:57:20;;;;;;;3.70;1.60;;;14.00;74.90;;;;;;5089982;28;20465;-63
2023/03/23 02:59:45;;;;;;;4.35;1.77;;;14.00;74.60;;;;;;5088754;28;20032;-64
2023/03/23 03:02:47;;;;;;;7.47;1.70;;;14.00;74.60;;;;;;5077263;28;20066;-64
2023/03/23 03:05:44;;;;;;;3.47;1.50;;;13.90;74.90;;;;;;5074526;28;20039;-64
2023/03/23 03:08:25;;;;;;;4.75;1.70;;;13.90;74.60;;;;;;5089797;28;20036;-64
2023/03/23 03:11:07;;;;;;;4.55;1.65;;;13.90;74.60;;;;;;5080855;28;20046;-65
2023/03/23 03:14:00;;;;;;;4.20;1.50;;;13.80;74.90;;;;;;5088107;28;20028;-64
2023/03/23 03:16:35;;;;;;;3.63;1.50;;;13.80;74.80;;;;;;5076481;28;20025;-64
2023/03/23 03:19:19;;;;;;;4.03;1.55;;;13.80;74.80;;;;;;5084614;28;20084;-64
2023/03/23 03:21:46;;;;;;;3.53;1.43;;;13.80;74.40;;;;;;5089033;28;20099;-63
2023/03/23 03:24:17;;;;;;;3.13;1.40;;;13.90;74.20;;;;;;5088160;28;20040;-63
2023/03/23 03:26:47;;;;;;;3.95;1.65;;;13.90;73.90;;;;;;5081910;28;20071;-63
2023/03/23 03:29:18;;;;;;;4.18;1.50;;;14.00;73.80;;;;;;5077162;28;20059;-63
2023/03/23 03:31:45;;;;;;;4.88;1.60;;;14.00;73.50;;;;;;5090099;28;20020;-63
2023/03/23 03:34:12;;;;;;;4.28;1.48;;;14.10;73.00;;;;;;5079437;28;20028;-64
2023/03/23 03:36:40;;;;;;;3.30;1.60;;;14.10;73.10;;;;;;5088768;28;20031;-65
2023/03/23 03:39:08;;;;;;;3.65;1.52;;;14.20;72.90;;;;;;5084791;28;20328;-64
2023/03/23 03:41:35;;;;;;;4.55;1.45;;;14.20;72.60;;;;;;5090891;28;20020;-65
2023/03/23 03:44:02;;;;;;;3.90;1.40;;;14.20;72.70;;;;;;5085323;28;20104;-64
2023/03/23 03:46:30;;;;;;;4.05;1.40;;;14.20;72.60;;;;;;5080903;28;20099;-64
2023/03/23 03:48:56;;;;;;;4.00;1.30;;;14.20;72.50;;;;;;5085452;28;20040;-64
2023/03/23 03:51:23;;;;;;;3.35;1.60;;;14.20;72.70;;;;;;5089835;28;20062;-64
2023/03/23 03:53:51;;;;;;;3.28;1.33;;;14.10;72.90;;;;;;5088229;28;20032;-64
2023/03/23 03:56:17;;;;;;;3.10;1.50;;;14.20;72.60;;;;;;5079058;28;20108;-65
2023/03/23 03:58:43;;;;;;;3.40;1.50;;;14.20;72.60;;;;;;5092136;28;20111;-64
2023/03/23 04:01:13;;;;;;;2.50;1.20;;;14.10;73.20;;;;;;5085273;28;20036;-64
2023/03/23 04:03:39;;;;;;;3.75;1.48;;;14.00;72.50;;;;;;5082854;28;20012;-64
2023/03/23 04:06:05;;;;;;;3.33;1.60;;;14.10;72.50;;;;;;5084060;28;20112;-63
2023/03/23 04:08:31;;;;;;;4.13;1.30;;;14.20;71.90;;;;;;5086437;28;20031;-63
2023/03/23 04:10:57;;;;;;;3.58;1.60;;;14.20;72.20;;;;;;5081040;28;20048;-64
2023/03/23 04:13:23;;;;;;;3.78;1.60;;;14.00;72.50;;;;;;5073169;28;20056;-64
2023/03/23 04:15:49;;;;;;;4.30;1.50;;;13.90;73.10;;;;;;5079141;28;20036;-64
2023/03/23 04:18:17;;;;;;;3.58;1.60;;;13.90;73.00;;;;;;5085988;28;20023;-65
2023/03/23 04:20:48;;;;;;;5.00;1.70;;;13.90;72.90;;;;;;5085950;28;20028;-64
2023/03/23 04:23:19;;;;;;;4.25;1.70;;;13.90;72.90;;;;;;5083555;28;20094;-64
2023/03/23 04:25:46;;;;;;;4.60;2.13;;;13.90;73.00;;;;;;5081812;28;20024;-64
2023/03/23 04:28:12;;;;;;;3.95;1.60;;;13.90;72.80;;;;;;5082755;28;20036;-65
2023/03/23 04:30:38;;;;;;;4.32;1.52;;;13.80;73.20;;;;;;5084780;28;20039;-62
2023/03/23 04:33:04;;;;;;;3.45;1.58;;;13.70;73.80;;;;;;5083821;28;20024;-64
2023/03/23 04:35:30;;;;;;;5.43;2.28;;;13.70;73.40;;;;;;5081033;28;20029;-64
2023/03/23 04:37:57;;;;;;;5.32;1.80;;;13.80;73.40;;;;;;5083958;28;20110;-64
2023/03/23 04:40:23;;;;;;;4.70;1.75;;;13.80;73.40;;;;;;5086940;28;20026;-64
2023/03/23 04:42:51;;;;;;;5.07;1.73;;;13.80;73.60;;;;;;5077007;28;20103;-64
2023/03/23 04:45:21;;;;;;;5.28;1.75;;;13.80;73.70;;;;;;5080076;28;20020;-62
2023/03/23 04:47:57;;;;;;;4.25;1.80;;;13.80;73.40;;;;;;5086230;28;20055;-63
2023/03/23 04:50:27;;;;;;;4.05;2.05;;;13.80;73.80;;;;;;5096552;28;20032;-63
2023/03/23 04:52:53;;;;;;;4.57;1.90;;;13.80;73.70;;;;;;5090387;28;20028;-63
2023/03/23 04:55:20;;;;;;;4.72;2.00;;;13.70;74.00;;;;;;5099343;28;20031;-64
2023/03/23 04:57:47;;;;;;;3.55;1.60;;;13.70;74.40;;;;;;5085249;28;20127;-64
2023/03/23 05:00:14;;;;;;;4.72;1.73;;;13.70;74.50;;;;;;5080818;28;20025;-64
2023/03/23 05:02:40;;;;;;;5.55;2.20;;;13.60;74.80;;;;;;5093500;28;20304;-64
2023/03/23 05:05:11;;;;;;;5.90;1.70;;;13.50;75.10;;;;;;5078778;28;20021;-64
2023/03/23 05:07:38;;;;;;;3.95;1.60;;;13.50;74.70;;;;;;5088831;28;20043;-62
2023/03/23 05:10:07;;;;;;;3.90;1.70;;;13.50;74.70;;;;;;5087501;28;20325;-64
2023/03/23 05:12:33;;;;;;;4.82;2.13;;;13.60;74.10;;;;;;5093145;28;20028;-63
2023/03/23 05:14:59;;;;;;;6.05;1.90;;;13.80;73.70;;;;;;5084515;28;20101;-64
2023/03/23 05:17:25;;;;;;;3.92;1.70;;;13.80;73.80;;;;;;5086181;28;20419;-64
2023/03/23 05:19:51;;;;;;;3.75;1.70;;;13.70;73.80;;;;;;5087405;28;20043;-64
2023/03/23 05:22:17;;;;;;;4.45;1.58;;;13.70;73.80;;;;;;5098181;28;20102;-64
2023/03/23 05:24:43;;;;;;;5.57;1.75;;;13.70;73.50;;;;;;5084099;28;20643;-64
2023/03/23 05:27:09;;;;;;;4.47;1.90;;;13.90;72.80;;;;;;5078187;28;20036;-64
2023/03/23 05:29:36;;;;;;;3.58;1.70;;;14.00;72.70;;;;;;5081814;28;20033;-64
2023/03/23 05:32:05;;;;;;;9.75;1.98;;;14.00;72.50;;;;;;5097110;28;20020;-64
2023/03/23 05:34:32;;;;;;;4.28;1.55;;;14.00;72.50;;;;;;5089634;28;20051;-64
2023/03/23 05:37:02;;;;;;;3.20;1.55;;;14.00;72.50;;;;;;5098650;28;20067;-64
2023/03/23 05:39:29;;;;;;;5.63;1.70;;;13.90;72.50;;;;;;5098677;28;20407;-64
2023/03/23 05:41:55;;;;;;;7.20;2.25;;;13.90;72.60;;;;;;5098587;28;20020;-64
2023/03/23 05:44:21;;;;;;;4.07;1.50;;;14.00;72.20;;;;;;5099637;28;20058;-64
2023/03/23 05:46:47;;;;;;;3.38;1.48;;;14.10;71.90;;;;;;5099584;28;20345;-64
2023/03/23 05:49:16;;;;;;;3.45;1.52;;;14.20;72.20;;;;;;5081938;28;20031;-64
2023/03/23 05:51:46;;;;;;;7.15;1.65;;;14.10;72.30;;;;;;5079108;28;20029;-64
2023/03/23 05:54:14;;;;;;;4.93;1.88;;;14.00;72.10;;;;;;5079253;28;20031;-64
2023/03/23 05:56:40;;;;;;;4.45;1.85;;;14.10;72.20;;;;;;5085019;28;20043;-65
2023/03/23 05:59:06;;;;;;;5.90;1.90;;;14.10;72.10;;;;;;5098257;28;20031;-65
2023/03/23 06:01:32;;;;;;;9.82;2.15;;;14.20;71.40;;;;;;5099229;28;20024;-64
2023/03/23 06:03:59;;;;;;;3.55;1.52;;;14.30;71.70;;;;;;5093500;28;20316;-64
2023/03/23 06:06:29;;;;;;;3.95;1.55;;;14.20;71.90;;;;;;5089409;28;20108;-64
2023/03/23 06:08:54;;;;;;;5.32;1.80;;;14.20;72.10;;;;;;5096961;28;20059;-65
2023/03/23 06:11:20;;;;;;;5.88;1.63;;;14.20;71.60;;;;;;5083288;28;20056;-64
2023/03/23 06:13:46;;;;;;;5.10;1.70;;;14.30;72.10;;;;;;5077722;28;20099;-64
2023/03/23 06:16:11;;;;;;;5.63;2.13;;;14.30;71.60;;;;;;5085599;28;20031;-64
2023/03/23 06:18:37;;;;;;;3.08;1.52;;;14.30;71.60;;;;;;5097688;28;20070;-62
2023/03/23 06:21:03;;;;;;;4.28;1.77;;;14.40;71.20;;;;;;5088109;28;20325;-62
2023/03/23 06:23:30;;;;;;;3.25;1.55;;;14.50;71.30;;;;;;5097745;28;20035;-62
2023/03/23 06:26:05;;;;;;;5.35;1.65;;;14.50;71.50;;;;;;5098537;28;20024;-62
2023/03/23 06:28:31;;;;;;;4.82;1.63;;;14.60;71.60;;;;;;5082054;28;20035;-63
2023/03/23 06:31:06;;;;;;;2.78;1.40;;;14.60;71.40;;;;;;5097600;28;20024;-65
2023/03/23 06:33:35;;;;;;;3.35;1.70;;;14.70;71.30;;;;;;5098744;28;20024;-65
2023/03/23 06:36:01;;;;;;;5.53;2.00;;;14.70;71.50;;;;;;5095112;28;20032;-65
2023/03/23 06:38:27;;;;;;;4.82;1.60;;;14.80;70.80;;;;;;5078306;28;20028;-65
2023/03/23 06:40:54;;;;;;;4.82;1.90;;;14.90;71.00;;;;;;5078299;28;20439;-65
2023/03/23 06:43:20;;;;;;;3.85;1.85;;;15.00;71.10;;;;;;5076858;28;20058;-64
2023/03/23 06:45:45;;;;;;;3.58;1.80;;;15.00;70.80;;;;;;5078413;28;20058;-64
2023/03/23 06:48:11;;;;;;;4.80;1.80;;;15.00;71.30;;;;;;5098363;28;20020;-65
2023/03/23 06:50:37;;;;;;;12.68;2.15;;;15.00;71.20;;;;;;5096638;28;20036;-65
2023/03/23 06:53:03;;;;;;;4.38;1.80;;;15.00;71.30;;;;;;5092475;28;20440;-65
2023/03/23 06:55:34;;;;;;;5.35;1.75;;;15.00;71.60;;;;;;5098704;28;20024;-65
2023/03/23 06:58:01;;;;;;;5.35;2.08;;;14.90;71.60;;;;;;5096825;28;20054;-66
2023/03/23 07:00:27;;;;;;;4.22;1.80;;;14.90;71.60;;;;;;5098156;28;20012;-65
2023/03/23 07:02:52;;;;;;;5.45;2.00;;;14.90;72.10;;;;;;5098161;28;20020;-65
2023/03/23 07:05:18;;;;;;;5.60;2.17;;;14.90;71.70;;;;;;5098130;28;20301;-65
2023/03/23 07:07:44;;;;;;;6.82;2.28;;;14.80;72.40;;;;;;5079626;28;20032;-64
2023/03/23 07:10:10;;;;;;;5.60;2.17;;;14.80;72.40;;;;;;5098198;28;20055;-64
2023/03/23 07:12:36;;;;;;;6.53;1.92;;;14.80;72.80;;;;;;5096552;28;20437;-65
2023/03/23 07:15:05;;;;;;;6.50;2.40;;;14.80;73.20;;;;;;5098000;28;20317;-64
2023/03/23 07:17:31;;;;;;;10.02;2.60;;;14.80;73.40;;;;;;5097843;28;20024;-65
2023/03/23 07:19:56;;;;;;;6.75;3.10;;;14.80;73.70;;;;;;5097764;28;20020;-65
2023/03/23 07:22:22;;;;;;;6.72;2.50;;;14.70;73.60;;;;;;5080430;28;20029;-64
2023/03/23 07:24:48;;;;;;;6.90;2.20;;;14.70;73.70;;;;;;5077486;28;20017;-65
2023/03/23 07:27:13;;;;;;;5.75;2.42;;;14.80;74.00;;;;;;5088765;28;20036;-64
2023/03/23 07:29:39;;;;;;;6.47;2.45;;;14.80;74.20;;;;;;5097563;28;20028;-65
2023/03/23 07:32:05;;;;;;;6.97;2.35;;;14.80;74.10;;;;;;5097492;28;20035;-64
2023/03/23 07:34:31;;;;;;;4.90;2.35;;;14.60;74.70;;;;;;5097680;28;20032;-64
2023/03/23 07:36:57;;;;;;;6.18;2.40;;;14.50;75.10;;;;;;5096566;28;20035;-65
2023/03/23 07:39:23;;;;;;;5.13;2.20;;;14.50;75.40;;;;;;5097087;28;20099;-64
2023/03/23 07:41:49;;;;;;;5.45;2.38;;;14.50;75.40;;;;;;5076078;28;20025;-64
2023/03/23 07:44:15;;;;;;;5.75;2.20;;;14.50;75.80;;;;;;5076069;28;20025;-65
2023/03/23 07:46:41;;;;;;;9.85;2.47;;;14.40;76.20;;;;;;5087078;28;20125;-64
2023/03/23 07:49:08;;;;;;;4.90;2.47;;;14.40;76.20;;;;;;5097191;28;20048;-65
2023/03/23 07:51:34;;;;;;;5.80;3.10;;;14.40;76.80;;;;;;5084062;28;20025;-64
2023/03/23 07:54:02;;;;;;;7.40;2.40;;;14.40;76.90;;;;;;5077072;28;20029;-64
2023/03/23 07:56:27;;;;;;;5.35;2.28;;;14.40;76.80;;;;;;5076425;28;20023;-64
2023/03/23 07:58:53;;;;;;;5.93;2.55;;;14.40;77.20;;;;;;5075485;28;20413;-64
2023/03/23 08:01:18;;;;;;;6.45;2.40;;;14.60;76.90;;;;;;5076549;28;20028;-65
2023/03/23 08:03:44;;;;;;;6.28;2.72;;;14.70;76.80;;;;;;5076359;28;20016;-64
2023/03/23 08:06:10;;;;;;;7.40;2.70;;;14.90;76.40;;;;;;5084815;28;20099;-64
2023/03/23 08:08:36;;;;;;;4.75;2.20;;;14.90;76.50;;;;;;5096756;28;20158;-64
2023/03/23 08:11:03;;;;;;;5.50;2.85;;;14.90;76.40;;;;;;5096840;28;20028;-64
2023/03/23 08:13:29;;;;;;;5.18;2.10;;;14.90;76.80;;;;;;5095492;28;20031;-64
2023/03/23 08:15:54;;;;;;;4.78;2.50;;;14.90;76.80;;;;;;5096650;28;20103;-64
2023/03/23 08:18:20;;;;;;;6.13;2.10;;;15.10;76.60;;;;;;5084672;28;20028;-65
2023/03/23 08:20:46;;;;;;;4.78;2.20;;;15.10;76.50;;;;;;5076311;28;20029;-64
2023/03/23 08:23:12;;;;;;;6.15;2.10;;;15.00;76.70;;;;;;5076470;28;20397;-65
2023/03/23 08:25:38;;;;;;;7.65;3.28;;;14.90;77.40;;;;;;5077683;28;20077;-64
2023/03/23 08:28:04;;;;;;;5.65;2.45;;;15.00;77.60;;;;;;5089163;28;20028;-64
2023/03/23 08:30:32;;;;;;;5.80;2.17;;;15.10;77.30;;;;;;5076180;28;20116;-64
2023/03/23 08:33:00;;;;;;;4.82;2.13;;;15.10;77.20;;;;;;5086704;28;20093;-64
2023/03/23 08:35:25;;;;;;;5.43;2.38;;;15.10;77.40;;;;;;5095560;28;20085;-64
2023/03/23 08:37:52;;;;;;;5.60;2.50;;;15.20;77.90;;;;;;5096342;28;20312;-64
2023/03/23 08:40:19;;;;;;;6.18;2.50;;;15.20;77.20;;;;;;5096373;28;20053;-64
2023/03/23 08:42:47;;;;;;;4.80;2.15;;;15.20;77.30;;;;;;5076278;28;20032;-64
2023/03/23 08:45:16;;;;;;;5.78;2.53;;;15.10;78.10;;;;;;5075834;28;20424;-64
2023/03/23 08:47:42;;;;;;;4.40;2.20;;;15.10;78.00;;;;;;5076109;28;20192;-64
2023/03/23 08:50:12;;;;;;;6.35;2.65;;;15.20;78.00;;;;;;5076082;28;20028;-64
2023/03/23 08:52:38;;;;;;;5.43;2.85;;;15.00;78.60;;;;;;5075702;28;20099;-65
2023/03/23 08:55:05;;;;;;;5.57;2.38;;;14.90;79.00;;;;;;5076071;28;20024;-64
2023/03/23 08:57:31;;;;;;;6.25;2.80;;;14.80;79.10;;;;;;5091487;28;20037;-64
2023/03/23 09:00:01;;;;;;;4.80;2.40;;;14.90;80.00;;;;;;5096193;28;20431;-64
2023/03/23 09:02:27;;;;;;;6.13;2.58;;;14.90;79.20;;;;;;5094260;28;20020;-63
2023/03/23 09:04:54;;;;;;;6.75;2.83;;;14.70;79.90;;;;;;5096101;28;20408;-64
2023/03/23 09:07:20;;;;;;;5.57;2.22;;;14.60;80.30;;;;;;5096082;28;20043;-64
2023/03/23 09:09:46;;;;;;;4.57;1.80;;;14.60;80.60;;;;;;5096091;28;20056;-64
2023/03/23 09:12:12;;;;;;;5.70;2.83;;;14.70;80.60;;;;;;5094947;28;20101;-65
2023/03/23 09:14:38;;;;;;;7.22;2.28;;;14.80;81.30;;;;;;5096038;28;20040;-64
2023/03/23 09:17:04;;;;;;;5.10;2.42;;;15.00;80.50;;;;;;5093747;28;20036;-63
2023/03/23 09:19:33;;;;;;;4.88;2.28;;;14.90;80.00;;;;;;5076320;28;20051;-64
2023/03/23 09:21:58;;;;;;;6.43;2.40;;;15.00;80.00;;;;;;5075610;28;20048;-64
2023/03/23 09:24:24;;;;;;;9.13;2.40;;;15.10;80.00;;;;;;5075738;28;20059;-64
2023/03/23 09:26:50;;;;;;;5.50;2.35;;;15.30;79.50;;;;;;5088139;28;20024;-63
2023/03/23 09:29:16;;;;;;;6.65;2.50;;;15.50;80.00;;;;;;5086983;28;20109;-64
2023/03/23 09:31:42;;;;;;;3.97;2.00;;;15.80;78.20;;;;;;5095797;28;20154;-64
2023/03/23 09:34:09;;;;;;;7.15;2.58;;;15.40;79.10;;;;;;5088001;28;20056;-64
2023/03/23 09:36:36;;;;;;;5.55;2.30;;;15.50;80.20;;;;;;5075538;28;20028;-64
2023/03/23 09:39:04;;;;;;;4.05;2.03;;;15.60;79.30;;;;;;5075587;28;20071;-64
2023/03/23 09:42:01;;;;;;;10.13;2.38;;;15.40;79.10;;;;;;5075466;28;20032;-64
2023/03/23 09:45:05;;;;;;;6.10;2.45;;;15.60;79.40;;;;;;5075583;28;20333;-64
2023/03/23 09:47:50;;;;;;;5.50;2.22;;;15.80;79.00;;;;;;5089583;28;20502;-64
2023/03/23 09:50:23;;;;;;;8.45;2.20;;;15.80;79.20;;;;;;5092645;28;20032;-64
2023/03/23 09:52:58;;;;;;;4.80;2.22;;;15.60;78.70;;;;;;5085957;28;20105;-63
2023/03/23 09:55:25;;;;;;;5.35;1.98;;;15.60;79.10;;;;;;5095482;28;20032;-64
2023/03/23 09:57:59;;;;;;;9.48;4.57;;;15.70;78.60;;;;;;5094167;28;20185;-64
2023/03/23 10:00:40;;;;;;;5.78;2.00;;;15.80;78.90;;;;;;5095621;28;20024;-64
2023/03/23 10:03:27;;;;;;;5.05;1.67;;;16.10;77.90;;;;;;5083134;28;20166;-64
2023/03/23 10:05:54;;;;;;;6.82;1.70;;;15.90;77.40;;;;;;5079162;28;20020;-64
2023/03/23 10:08:31;;;;;;;4.45;2.13;;;15.80;78.10;;;;;;5079171;28;20443;-64
2023/03/23 10:11:29;;;;;;;5.45;1.90;;;15.90;78.50;;;;;;5078975;28;20027;-64
2023/03/23 10:14:04;;;;;;;4.10;2.10;;;16.30;77.90;;;;;;5077310;28;20040;-64
2023/03/23 10:16:36;;;;;;;4.35;1.85;;;16.40;77.00;;;;;;5089120;28;20289;-64
2023/03/23 10:19:12;;;;;;;4.15;1.85;;;16.40;77.10;;;;;;5089667;28;20036;-64
2023/03/23 10:21:43;;;;;;;3.92;1.88;;;16.40;77.40;;;;;;5099079;28;20051;-64
2023/03/23 10:24:13;;;;;;;4.47;1.83;;;16.30;76.70;;;;;;5089692;28;20389;-64
2023/03/23 10:27:06;;;;;;;5.35;2.10;;;16.10;77.60;;;;;;5078454;28;20020;-64
2023/03/23 10:29:58;;;;;;;5.93;1.80;;;15.80;79.20;;;;;;5078710;28;20482;-64
2023/03/23 10:32:49;;;;;;;4.13;2.10;;;15.40;81.20;;;;;;5078533;28;20092;-64
2023/03/23 10:35:20;;;;;;;4.13;1.85;;;15.20;83.30;;;;;;5067652;28;20431;-64
2023/03/23 10:37:52;;;;;;;4.47;1.90;;;14.90;83.60;;;;;;5092784;28;20056;-64
2023/03/23 10:40:23;;;;;;;4.72;2.10;;;14.50;86.00;;;;;;5078548;28;20062;-64
2023/03/23 10:42:51;;;;;;;4.10;1.80;;;14.40;87.10;;;;;;5076516;28;20066;-64
2023/03/23 10:45:27;;;;;;;6.07;2.22;;;14.20;85.60;;;;;;5078143;28;20017;-64
2023/03/23 10:48:05;;;;;;;4.82;2.10;;;14.20;85.80;;;;;;5078276;28;20017;-64
2023/03/23 10:50:36;;;;;;;4.63;2.35;;;14.40;85.70;;;;;;5078222;28;20051;-64
2023/03/23 10:53:14;;;;;;;9.07;3.58;;;14.50;86.10;;;;;;5078048;28;20103;-64
2023/03/23 10:55:43;;;;;;;6.70;2.17;;;14.90;85.10;;;;;;5078026;28;20029;-64
2023/03/23 10:58:22;;;;;;;4.85;2.60;;;15.30;82.10;;;;;;5078572;28;20055;-64
2023/03/23 11:00:48;;;;;;;6.50;2.30;;;15.40;81.40;;;;;;5077969;28;20016;-64
2023/03/23 11:03:15;;;;;;;5.35;2.70;;;15.30;82.30;;;;;;5078378;28;20107;-64
2023/03/23 11:05:43;;;;;;;4.43;2.30;;;15.70;82.90;;;;;;5080710;28;20401;-64
2023/03/23 11:08:18;;;;;;;4.22;1.77;;;16.10;81.60;;;;;;5097882;28;20032;-64
2023/03/23 11:11:09;;;;;;;5.50;2.20;;;16.10;79.10;;;;;;5098206;28;20128;-64
2023/03/23 11:13:48;;;;;;;3.63;1.80;;;16.00;79.60;;;;;;5093977;28;20424;-64
2023/03/23 11:16:30;;;;;;;6.18;1.90;;;15.80;79.20;;;;;;5083554;28;20036;-64
2023/03/23 11:18:57;;;;;;;5.68;1.80;;;15.50;80.60;;;;;;5077301;28;20066;-64
2023/03/23 11:21:24;;;;;;;5.65;1.83;;;15.50;79.90;;;;;;5090315;28;20028;-64
2023/03/23 11:23:53;;;;;;;14.32;6.32;;;15.50;80.30;;;;;;5096569;28;20020;-65
2023/03/23 11:26:27;;;;;;;4.75;2.00;;;15.70;80.00;;;;;;5097391;28;20024;-64
2023/03/23 11:28:58;;;;;;;4.88;2.00;;;15.80;79.00;;;;;;5096522;28;20166;-64
2023/03/23 11:31:35;;;;;;;4.20;1.90;;;15.90;78.50;;;;;;5097503;28;20065;-65
2023/03/23 11:34:17;;;;;;;4.30;2.25;;;16.10;77.20;;;;;;5097498;28;20024;-64
2023/03/23 11:36:49;;;;;;;4.85;1.98;;;16.10;77.40;;;;;;5097607;28;20032;-64
2023/03/23 11:39:33;;;;;;;15.02;7.45;;;16.30;77.30;;;;;;5083404;28;20086;-64
2023/03/23 11:42:01;;;;;;;5.43;2.00;;;16.50;78.20;;;;;;5075845;28;20035;-64
2023/03/23 11:44:36;;;;;;;4.07;1.58;;;16.50;76.50;;;;;;5077157;28;20047;-64
2023/03/23 11:47:32;;;;;;;4.35;1.90;;;16.40;77.40;;;;;;5095555;28;20032;-64
2023/03/23 11:50:53;;;;;;;5.25;1.83;;;16.70;76.00;;;;;;5096470;28;20020;-64
2023/03/23 11:53:37;;;;;;;3.90;2.15;;;16.80;75.50;;;;;;5075202;28;20383;-64
2023/03/23 11:56:09;;;;;;;3.85;2.05;;;16.50;76.60;;;;;;5074966;28;20032;-64
2023/03/23 11:58:36;;;;;;;4.93;2.05;;;16.50;75.60;;;;;;5074782;28;20059;-64
2023/03/23 12:01:29;;;;;;;5.50;2.90;;;16.60;75.40;;;;;;5076880;28;20031;-64
2023/03/23 12:04:23;;;;;;;4.07;1.83;;;16.90;75.70;;;;;;5076774;28;20073;-64
2023/03/23 12:07:07;;;;;;;9.25;2.08;;;17.10;74.80;;;;;;5094659;28;20038;-64
2023/03/23 12:09:42;;;;;;;4.53;2.25;;;17.30;75.40;;;;;;5096843;28;20035;-64
2023/03/23 12:12:31;;;;;;;4.47;2.40;;;17.30;74.50;;;;;;5095750;28;20027;-63
2023/03/23 12:15:21;;;;;;;5.32;2.40;;;17.40;73.70;;;;;;5096702;28;20371;-62
2023/03/23 12:18:02;;;;;;;6.88;2.00;;;17.10;74.50;;;;;;5096643;28;20154;-62
2023/03/23 12:20:53;;;;;;;12.00;2.35;;;17.00;74.00;;;;;;5095481;28;20106;-62
2023/03/23 12:23:34;;;;;;;4.25;2.20;;;16.90;74.80;;;;;;5095701;28;20082;-62
2023/03/23 12:26:28;;;;;;;4.72;2.17;;;16.60;74.40;;;;;;5096467;28;20024;-64
2023/03/23 12:29:18;;;;;;;4.65;2.20;;;16.30;74.50;;;;;;5094950;28;20032;-64
2023/03/23 12:32:15;;;;;;;4.78;2.20;;;16.30;75.80;;;;;;5096457;28;20358;-64
2023/03/23 12:34:54;;;;;;;4.95;2.40;;;16.30;75.60;;;;;;5095450;28;20039;-63
2023/03/23 12:37:39;;;;;;;9.55;2.70;;;16.40;75.20;;;;;;5085222;28;20028;-64
2023/03/23 12:40:27;;;;;;;4.88;2.17;;;16.30;76.10;;;;;;5096281;28;20024;-63
2023/03/23 12:42:58;;;;;;;5.47;2.40;;;16.20;75.00;;;;;;5095053;28;20099;-63
2023/03/23 12:45:30;;;;;;;7.53;2.40;;;16.00;75.50;;;;;;5087183;28;20016;-64
2023/03/23 12:47:58;;;;;;;5.78;2.47;;;16.10;75.80;;;;;;5076057;28;20032;-64
2023/03/23 12:50:36;;;;;;;4.72;2.15;;;16.20;76.10;;;;;;5076879;28;20025;-64
2023/03/23 12:53:11;;;;;;;5.50;2.55;;;16.00;75.60;;;;;;5075528;28;20037;-64
2023/03/23 12:55:52;;;;;;;5.00;2.22;;;15.90;76.20;;;;;;5076030;28;20306;-64
2023/03/23 12:58:27;;;;;;;6.75;2.75;;;16.20;76.20;;;;;;5081682;28;20036;-64
2023/03/23 13:01:04;;;;;;;5.43;2.28;;;16.40;74.90;;;;;;5088690;28;20024;-63
2023/03/23 13:03:57;;;;;;;5.55;2.30;;;16.40;75.30;;;;;;5086163;28;20453;-63
2023/03/23 13:06:22;;;;;;;6.18;2.30;;;16.40;74.40;;;;;;5076890;28;20059;-64